sensor_id;sensor_type;location;lat;lon;timestamp;pressure;altitude;pressure_sealevel;temperature;humidity
3544;BME280;1786;52.870;9.578;2023-10-19T00:02:09;99086.38;;;12.32;64.13
3544;BME280;1786;52.870;9.578;2023-10-19T00:04:42;99082.69;;;12.15;64.34
3544;BME280;1786;52.870;9.578;2023-10-19T00:07:08;99073.63;;;12.45;63.91
3544;BME280;1786;52.870;9.578;2023-10-19T00:09:43;99079.22;;;12.42;63.71
3544;BME280;1786;52.870;9.578;2023-10-19T00:12:14;99078.97;;;12.36;63.61
3544;BME280;1786;52.870;9.578;2023-10-19T00:14:43;99084.06;;;12.09;64.50
3544;BME280;1786;52.870;9.578;2023-10-19T00:17:09;99076.09;;;12.19;64.90
3544;BME280;1786;52.870;9.578;2023-10-19T00:19:38;99081.28;;;12.76;63.55
3544;BME280;1786;52.870;9.578;2023-10-19T00:22:24;99075.84;;;12.50;64.17
3544;BME280;1786;52.870;9.578;2023-10-19T00:24:51;99082.44;;;12.36;63.83
3544;BME280;1786;52.870;9.578;2023-10-19T00:27:17;99087.97;;;12.80;63.36
3544;BME280;1786;52.870;9.578;2023-10-19T00:29:45;99074.31;;;13.20;62.46
3544;BME280;1786;52.870;9.578;2023-10-19T00:32:16;99077.84;;;12.93;62.97
3544;BME280;1786;52.870;9.578;2023-10-19T00:34:45;99077.56;;;13.32;63.19
3544;BME280;1786;52.870;9.578;2023-10-19T00:37:19;99073.81;;;12.62;63.97
3544;BME280;1786;52.870;9.578;2023-10-19T00:39:54;99072.16;;;12.33;65.56
3544;BME280;1786;52.870;9.578;2023-10-19T00:42:23;99068.66;;;12.88;65.35
3544;BME280;1786;52.870;9.578;2023-10-19T00:44:58;99067.75;;;12.51;65.37
3544;BME280;1786;52.870;9.578;2023-10-19T00:47:32;99066.44;;;11.61;68.33
3544;BME280;1786;52.870;9.578;2023-10-19T00:50:08;99065.06;;;12.24;67.33
3544;BME280;1786;52.870;9.578;2023-10-19T00:52:44;99063.97;;;12.54;66.77
3544;BME280;1786;52.870;9.578;2023-10-19T00:55:17;99059.09;;;12.49;67.03
3544;BME280;1786;52.870;9.578;2023-10-19T00:57:45;99053.59;;;12.88;65.47
3544;BME280;1786;52.870;9.578;2023-10-19T01:00:15;99045.56;;;12.80;66.44
3544;BME280;1786;52.870;9.578;2023-10-19T01:02:57;99041.63;;;12.56;66.67
3544;BME280;1786;52.870;9.578;2023-10-19T01:05:27;99039.88;;;12.20;67.85
3544;BME280;1786;52.870;9.578;2023-10-19T01:08:04;99024.38;;;12.25;67.84
3544;BME280;1786;52.870;9.578;2023-10-19T01:10:51;99025.47;;;11.95;68.37
3544;BME280;1786;52.870;9.578;2023-10-19T01:13:19;99026.72;;;11.81;69.54
3544;BME280;1786;52.870;9.578;2023-10-19T01:15:54;99027.06;;;11.58;70.18
3544;BME280;1786;52.870;9.578;2023-10-19T01:18:20;99024.66;;;12.22;69.08
3544;BME280;1786;52.870;9.578;2023-10-19T01:20:48;99022.56;;;11.88;70.03
3544;BME280;1786;52.870;9.578;2023-10-19T01:23:19;99018.34;;;12.05;70.07
3544;BME280;1786;52.870;9.578;2023-10-19T01:25:57;99017.09;;;12.27;69.67
3544;BME280;1786;52.870;9.578;2023-10-19T01:28:29;99017.94;;;12.83;68.12
3544;BME280;1786;52.870;9.578;2023-10-19T01:33:44;99001.66;;;11.95;71.34
3544;BME280;1786;52.870;9.578;2023-10-19T01:36:12;99004.47;;;11.74;71.65
3544;BME280;1786;52.870;9.578;2023-10-19T01:38:52;99006.72;;;11.68;71.98
3544;BME280;1786;52.870;9.578;2023-10-19T01:41:22;99003.66;;;11.63;72.53
3544;BME280;1786;52.870;9.578;2023-10-19T01:43:51;98992.53;;;11.60;72.61
3544;BME280;1786;52.870;9.578;2023-10-19T01:46:22;98996.75;;;11.33;72.85
3544;BME280;1786;52.870;9.578;2023-10-19T01:48:57;98990.94;;;11.30;73.23
3544;BME280;1786;52.870;9.578;2023-10-19T01:51:26;98980.88;;;11.43;73.54
3544;BME280;1786;52.870;9.578;2023-10-19T01:53:54;98985.31;;;11.52;73.80
3544;BME280;1786;52.870;9.578;2023-10-19T01:56:23;98969.50;;;11.03;75.07
3544;BME280;1786;52.870;9.578;2023-10-19T01:58:50;98965.44;;;11.38;74.05
3544;BME280;1786;52.870;9.578;2023-10-19T02:01:21;98958.78;;;11.72;73.24
3544;BME280;1786;52.870;9.578;2023-10-19T02:03:58;98956.72;;;11.75;73.12
3544;BME280;1786;52.870;9.578;2023-10-19T02:06:28;98948.28;;;11.52;73.17
3544;BME280;1786;52.870;9.578;2023-10-19T02:09:13;98945.25;;;11.47;73.58
3544;BME280;1786;52.870;9.578;2023-10-19T02:11:52;98930.81;;;11.32;74.35
3544;BME280;1786;52.870;9.578;2023-10-19T02:14:20;98933.06;;;11.07;74.85
3544;BME280;1786;52.870;9.578;2023-10-19T02:16:49;98929.19;;;10.92;75.53
3544;BME280;1786;52.870;9.578;2023-10-19T02:19:23;98909.38;;;11.25;75.03
3544;BME280;1786;52.870;9.578;2023-10-19T02:21:59;98903.41;;;11.13;75.41
3544;BME280;1786;52.870;9.578;2023-10-19T02:24:26;98905.13;;;10.95;75.97
3544;BME280;1786;52.870;9.578;2023-10-19T02:26:55;98898.06;;;10.66;76.33
3544;BME280;1786;52.870;9.578;2023-10-19T02:29:22;98888.97;;;10.98;76.01
3544;BME280;1786;52.870;9.578;2023-10-19T02:31:50;98882.13;;;11.24;75.37
3544;BME280;1786;52.870;9.578;2023-10-19T02:34:17;98885.81;;;10.75;75.81
3544;BME280;1786;52.870;9.578;2023-10-19T02:36:45;98878.00;;;10.83;76.54
3544;BME280;1786;52.870;9.578;2023-10-19T02:39:14;98878.28;;;10.90;76.38
3544;BME280;1786;52.870;9.578;2023-10-19T02:41:44;98878.81;;;11.03;76.29
3544;BME280;1786;52.870;9.578;2023-10-19T02:44:13;98874.63;;;11.10;75.88
3544;BME280;1786;52.870;9.578;2023-10-19T02:46:40;98864.25;;;10.79;76.52
3544;BME280;1786;52.870;9.578;2023-10-19T02:49:12;98870.44;;;11.27;75.26
3544;BME280;1786;52.870;9.578;2023-10-19T02:51:50;98865.91;;;11.00;75.80
3544;BME280;1786;52.870;9.578;2023-10-19T02:54:19;98870.25;;;10.62;76.95
3544;BME280;1786;52.870;9.578;2023-10-19T02:56:47;98861.84;;;10.96;76.17
3544;BME280;1786;52.870;9.578;2023-10-19T02:59:17;98856.69;;;11.14;75.78
3544;BME280;1786;52.870;9.578;2023-10-19T03:01:57;98856.94;;;11.20;75.46
3544;BME280;1786;52.870;9.578;2023-10-19T03:04:40;98860.81;;;10.59;76.75
3544;BME280;1786;52.870;9.578;2023-10-19T03:07:08;98865.25;;;10.69;77.03
3544;BME280;1786;52.870;9.578;2023-10-19T03:09:35;98865.50;;;10.85;76.70
3544;BME280;1786;52.870;9.578;2023-10-19T03:12:15;98868.81;;;10.97;76.55
3544;BME280;1786;52.870;9.578;2023-10-19T03:14:44;98867.56;;;11.01;76.47
3544;BME280;1786;52.870;9.578;2023-10-19T03:17:14;98857.75;;;10.83;76.37
3544;BME280;1786;52.870;9.578;2023-10-19T03:19:42;98863.03;;;10.83;76.52
3544;BME280;1786;52.870;9.578;2023-10-19T03:22:09;98857.94;;;11.10;75.51
3544;BME280;1786;52.870;9.578;2023-10-19T03:24:37;98866.06;;;10.89;76.44
3544;BME280;1786;52.870;9.578;2023-10-19T03:27:13;98865.38;;;11.34;75.48
3544;BME280;1786;52.870;9.578;2023-10-19T03:29:45;98874.31;;;11.23;75.96
3544;BME280;1786;52.870;9.578;2023-10-19T03:32:15;98868.19;;;11.32;75.74
3544;BME280;1786;52.870;9.578;2023-10-19T03:34:48;98869.81;;;11.43;74.89
3544;BME280;1786;52.870;9.578;2023-10-19T03:37:17;98852.63;;;11.19;76.17
3544;BME280;1786;52.870;9.578;2023-10-19T03:39:48;98846.56;;;10.99;76.36
3544;BME280;1786;52.870;9.578;2023-10-19T03:42:15;98845.16;;;11.05;76.14
3544;BME280;1786;52.870;9.578;2023-10-19T03:44:42;98827.66;;;10.94;76.19
3544;BME280;1786;52.870;9.578;2023-10-19T03:47:21;98822.03;;;11.17;75.83
3544;BME280;1786;52.870;9.578;2023-10-19T03:49:53;98803.22;;;10.73;76.90
3544;BME280;1786;52.870;9.578;2023-10-19T03:52:20;98805.81;;;11.02;76.96
3544;BME280;1786;52.870;9.578;2023-10-19T03:54:48;98805.16;;;10.80;76.45
3544;BME280;1786;52.870;9.578;2023-10-19T03:57:17;98805.81;;;11.02;76.43
3544;BME280;1786;52.870;9.578;2023-10-19T03:59:56;98803.53;;;10.60;78.32
3544;BME280;1786;52.870;9.578;2023-10-19T04:02:27;98796.19;;;11.01;77.58
3544;BME280;1786;52.870;9.578;2023-10-19T04:04:56;98805.81;;;11.02;76.77
3544;BME280;1786;52.870;9.578;2023-10-19T04:07:24;98794.72;;;10.89;76.82
3544;BME280;1786;52.870;9.578;2023-10-19T04:09:59;98791.84;;;10.72;77.79
3544;BME280;1786;52.870;9.578;2023-10-19T04:12:39;98788.25;;;10.64;78.21
3544;BME280;1786;52.870;9.578;2023-10-19T04:15:09;98778.94;;;10.50;78.90
3544;BME280;1786;52.870;9.578;2023-10-19T04:17:39;98778.97;;;10.97;77.56
3544;BME280;1786;52.870;9.578;2023-10-19T04:20:07;98777.03;;;10.99;77.17
3544;BME280;1786;52.870;9.578;2023-10-19T04:22:43;98774.59;;;11.15;76.51
3544;BME280;1786;52.870;9.578;2023-10-19T04:25:10;98779.31;;;10.74;77.87
3544;BME280;1786;52.870;9.578;2023-10-19T04:27:39;98771.94;;;10.68;78.17
3544;BME280;1786;52.870;9.578;2023-10-19T04:30:13;98776.97;;;11.09;76.96
3544;BME280;1786;52.870;9.578;2023-10-19T04:32:43;98788.78;;;10.67;77.67
3544;BME280;1786;52.870;9.578;2023-10-19T04:35:11;98769.06;;;10.71;77.19
3544;BME280;1786;52.870;9.578;2023-10-19T04:37:41;98787.38;;;10.73;77.92
3544;BME280;1786;52.870;9.578;2023-10-19T04:40:10;98774.78;;;11.04;76.90
3544;BME280;1786;52.870;9.578;2023-10-19T04:42:38;98766.25;;;10.63;78.53
3544;BME280;1786;52.870;9.578;2023-10-19T04:45:05;98758.41;;;10.44;79.48
3544;BME280;1786;52.870;9.578;2023-10-19T04:47:33;98766.44;;;10.52;78.78
3544;BME280;1786;52.870;9.578;2023-10-19T04:50:03;98755.88;;;10.61;78.81
3544;BME280;1786;52.870;9.578;2023-10-19T04:52:32;98758.16;;;10.84;77.96
3544;BME280;1786;52.870;9.578;2023-10-19T04:54:59;98752.63;;;10.77;78.56
3544;BME280;1786;52.870;9.578;2023-10-19T04:57:28;98750.81;;;11.15;77.47
3544;BME280;1786;52.870;9.578;2023-10-19T04:59:54;98741.19;;;10.87;78.31
3544;BME280;1786;52.870;9.578;2023-10-19T05:02:22;98746.50;;;10.77;78.13
3544;BME280;1786;52.870;9.578;2023-10-19T05:04:49;98751.50;;;11.17;76.72
3544;BME280;1786;52.870;9.578;2023-10-19T05:07:16;98756.28;;;10.57;78.53
3544;BME280;1786;52.870;9.578;2023-10-19T05:09:46;98750.81;;;10.68;78.91
3544;BME280;1786;52.870;9.578;2023-10-19T05:12:14;98753.19;;;10.81;79.00
3544;BME280;1786;52.870;9.578;2023-10-19T05:14:42;98742.19;;;11.13;77.51
3544;BME280;1786;52.870;9.578;2023-10-19T05:17:09;98753.59;;;10.76;78.79
3544;BME280;1786;52.870;9.578;2023-10-19T05:19:38;98744.47;;;10.61;78.89
3544;BME280;1786;52.870;9.578;2023-10-19T05:22:06;98747.38;;;10.58;78.93
3544;BME280;1786;52.870;9.578;2023-10-19T05:24:34;98733.66;;;10.45;79.33
3544;BME280;1786;52.870;9.578;2023-10-19T05:27:03;98730.63;;;10.87;78.45
3544;BME280;1786;52.870;9.578;2023-10-19T05:29:33;98743.19;;;10.65;79.04
3544;BME280;1786;52.870;9.578;2023-10-19T05:32:00;98743.91;;;11.04;77.97
3544;BME280;1786;52.870;9.578;2023-10-19T05:34:28;98748.88;;;11.08;77.32
3544;BME280;1786;52.870;9.578;2023-10-19T05:37:02;98744.59;;;10.59;79.29
3544;BME280;1786;52.870;9.578;2023-10-19T05:39:29;98740.88;;;10.43;79.77
3544;BME280;1786;52.870;9.578;2023-10-19T05:41:58;98742.22;;;11.03;78.06
3544;BME280;1786;52.870;9.578;2023-10-19T05:44:31;98744.78;;;10.86;78.16
3544;BME280;1786;52.870;9.578;2023-10-19T05:46:59;98741.59;;;10.92;77.89
3544;BME280;1786;52.870;9.578;2023-10-19T05:49:27;98742.34;;;10.74;78.45
3544;BME280;1786;52.870;9.578;2023-10-19T05:51:56;98730.41;;;10.60;79.57
3544;BME280;1786;52.870;9.578;2023-10-19T05:54:23;98738.84;;;10.83;78.54
3544;BME280;1786;52.870;9.578;2023-10-19T05:56:51;98756.09;;;10.78;78.83
3544;BME280;1786;52.870;9.578;2023-10-19T05:59:21;98751.53;;;10.70;79.02
3544;BME280;1786;52.870;9.578;2023-10-19T06:01:50;98753.31;;;10.79;78.93
3544;BME280;1786;52.870;9.578;2023-10-19T06:04:18;98747.44;;;11.23;77.75
3544;BME280;1786;52.870;9.578;2023-10-19T06:06:47;98758.81;;;10.58;78.99
3544;BME280;1786;52.870;9.578;2023-10-19T06:09:16;98748.81;;;10.33;80.24
3544;BME280;1786;52.870;9.578;2023-10-19T06:11:43;98760.91;;;10.26;80.52
3544;BME280;1786;52.870;9.578;2023-10-19T06:14:11;98756.78;;;10.80;79.12
3544;BME280;1786;52.870;9.578;2023-10-19T06:16:41;98761.84;;;10.54;79.52
3544;BME280;1786;52.870;9.578;2023-10-19T06:19:08;98761.56;;;10.67;79.02
3544;BME280;1786;52.870;9.578;2023-10-19T06:21:36;98752.19;;;11.19;77.29
3544;BME280;1786;52.870;9.578;2023-10-19T06:24:03;98759.09;;;10.93;78.16
3544;BME280;1786;52.870;9.578;2023-10-19T06:26:30;98750.56;;;10.71;79.09
3544;BME280;1786;52.870;9.578;2023-10-19T06:28:57;98769.16;;;10.79;78.69
3544;BME280;1786;52.870;9.578;2023-10-19T06:31:26;98762.81;;;10.53;79.67
3544;BME280;1786;52.870;9.578;2023-10-19T06:33:58;98750.41;;;11.10;78.32
3544;BME280;1786;52.870;9.578;2023-10-19T06:36:28;98749.75;;;10.61;79.92
3544;BME280;1786;52.870;9.578;2023-10-19T06:38:59;98761.84;;;10.54;79.55
3544;BME280;1786;52.870;9.578;2023-10-19T06:41:25;98762.13;;;10.98;nan
3544;BME280;1786;52.870;9.578;2023-10-19T06:43:52;98764.56;;;10.81;78.54
3544;BME280;1786;52.870;9.578;2023-10-19T06:46:19;98752.34;;;10.71;79.36
3544;BME280;1786;52.870;9.578;2023-10-19T06:48:47;98759.44;;;10.70;79.43
3544;BME280;1786;52.870;9.578;2023-10-19T06:51:13;98757.16;;;10.95;78.44
3544;BME280;1786;52.870;9.578;2023-10-19T06:53:44;98760.09;;;10.92;78.64
3544;BME280;1786;52.870;9.578;2023-10-19T06:56:12;98759.72;;;10.67;79.72
3544;BME280;1786;52.870;9.578;2023-10-19T06:58:38;98754.84;;;10.72;79.33
3544;BME280;1786;52.870;9.578;2023-10-19T07:01:08;98754.22;;;11.53;77.45
3544;BME280;1786;52.870;9.578;2023-10-19T07:03:36;98754.09;;;10.90;78.06
3544;BME280;1786;52.870;9.578;2023-10-19T07:06:04;98740.56;;;11.02;78.35
3544;BME280;1786;52.870;9.578;2023-10-19T07:08:38;98741.75;;;10.80;79.06
3544;BME280;1786;52.870;9.578;2023-10-19T07:11:04;98745.50;;;10.88;78.76
3544;BME280;1786;52.870;9.578;2023-10-19T07:13:33;98750.41;;;11.38;77.24
3544;BME280;1786;52.870;9.578;2023-10-19T07:16:01;98740.31;;;10.96;79.22
3544;BME280;1786;52.870;9.578;2023-10-19T07:18:28;98741.31;;;11.22;77.98
3544;BME280;1786;52.870;9.578;2023-10-19T07:20:56;98731.13;;;11.00;78.97
3544;BME280;1786;52.870;9.578;2023-10-19T07:23:31;98740.84;;;11.09;78.39
3544;BME280;1786;52.870;9.578;2023-10-19T07:25:59;98728.19;;;11.03;78.91
3544;BME280;1786;52.870;9.578;2023-10-19T07:28:29;98743.16;;;10.85;78.90
3544;BME280;1786;52.870;9.578;2023-10-19T07:30:57;98723.75;;;10.66;79.10
3544;BME280;1786;52.870;9.578;2023-10-19T07:33:25;98733.78;;;11.27;78.33
3544;BME280;1786;52.870;9.578;2023-10-19T07:35:53;98737.78;;;11.04;78.67
3544;BME280;1786;52.870;9.578;2023-10-19T07:38:23;98734.28;;;11.31;77.92
3544;BME280;1786;52.870;9.578;2023-10-19T07:40:50;98741.78;;;10.71;79.89
3544;BME280;1786;52.870;9.578;2023-10-19T07:43:23;98742.78;;;11.07;78.99
3544;BME280;1786;52.870;9.578;2023-10-19T07:45:52;98733.38;;;10.95;80.08
3544;BME280;1786;52.870;9.578;2023-10-19T07:48:20;98724.56;;;11.32;78.49
3544;BME280;1786;52.870;9.578;2023-10-19T07:50:46;98736.34;;;11.65;77.88
3544;BME280;1786;52.870;9.578;2023-10-19T07:53:14;98734.75;;;11.54;77.04
3544;BME280;1786;52.870;9.578;2023-10-19T07:55:42;98735.44;;;11.29;78.51
3544;BME280;1786;52.870;9.578;2023-10-19T07:58:10;98735.88;;;11.52;77.71
3544;BME280;1786;52.870;9.578;2023-10-19T08:00:37;98729.56;;;11.07;nan
3544;BME280;1786;52.870;9.578;2023-10-19T08:03:06;98730.63;;;11.42;78.22
3544;BME280;1786;52.870;9.578;2023-10-19T08:05:35;98733.47;;;10.66;80.97
3544;BME280;1786;52.870;9.578;2023-10-19T08:08:02;98730.69;;;11.04;79.62
3544;BME280;1786;52.870;9.578;2023-10-19T08:10:31;98735.69;;;11.08;80.40
3544;BME280;1786;52.870;9.578;2023-10-19T08:12:59;98729.56;;;11.35;78.86
3544;BME280;1786;52.870;9.578;2023-10-19T08:15:29;98734.34;;;10.94;80.85
3544;BME280;1786;52.870;9.578;2023-10-19T08:17:57;98740.31;;;11.51;78.47
3544;BME280;1786;52.870;9.578;2023-10-19T08:20:24;98743.34;;;11.74;77.81
3544;BME280;1786;52.870;9.578;2023-10-19T08:22:54;98734.56;;;11.38;78.95
3544;BME280;1786;52.870;9.578;2023-10-19T08:25:25;98730.91;;;11.39;78.90
3544;BME280;1786;52.870;9.578;2023-10-19T08:28:15;98731.72;;;11.21;79.20
3544;BME280;1786;52.870;9.578;2023-10-19T08:30:42;98727.50;;;11.29;79.13
3544;BME280;1786;52.870;9.578;2023-10-19T08:33:12;98729.41;;;11.36;78.51
3544;BME280;1786;52.870;9.578;2023-10-19T08:35:41;98736.91;;;11.59;78.48
3544;BME280;1786;52.870;9.578;2023-10-19T08:38:08;98746.59;;;11.96;77.33
3544;BME280;1786;52.870;9.578;2023-10-19T08:40:38;98738.53;;;11.69;78.50
3544;BME280;1786;52.870;9.578;2023-10-19T08:43:07;98741.00;;;11.25;79.67
3544;BME280;1786;52.870;9.578;2023-10-19T08:45:41;98736.28;;;11.75;78.17
3544;BME280;1786;52.870;9.578;2023-10-19T08:48:08;98737.97;;;11.48;78.95
3544;BME280;1786;52.870;9.578;2023-10-19T08:50:35;98736.19;;;11.39;79.53
3544;BME280;1786;52.870;9.578;2023-10-19T08:53:06;98728.53;;;11.63;78.63
3544;BME280;1786;52.870;9.578;2023-10-19T08:55:36;98728.53;;;11.81;78.40
3544;BME280;1786;52.870;9.578;2023-10-19T08:58:15;98738.13;;;11.92;77.77
3544;BME280;1786;52.870;9.578;2023-10-19T09:01:07;98731.13;;;11.73;78.25
3544;BME280;1786;52.870;9.578;2023-10-19T09:03:36;98736.44;;;11.91;77.69
3544;BME280;1786;52.870;9.578;2023-10-19T09:06:03;98736.09;;;11.58;77.86
3544;BME280;1786;52.870;9.578;2023-10-19T09:08:31;98729.72;;;11.51;78.68
3544;BME280;1786;52.870;9.578;2023-10-19T09:11:09;98722.41;;;11.63;79.16
3544;BME280;1786;52.870;9.578;2023-10-19T09:13:47;98726.34;;;11.59;79.03
3544;BME280;1786;52.870;9.578;2023-10-19T09:16:16;98732.56;;;11.22;79.39
3544;BME280;1786;52.870;9.578;2023-10-19T09:18:43;98724.13;;;11.09;80.31
3544;BME280;1786;52.870;9.578;2023-10-19T09:21:15;98728.13;;;11.40;79.90
3544;BME280;1786;52.870;9.578;2023-10-19T09:23:53;98731.56;;;11.23;80.00
3544;BME280;1786;52.870;9.578;2023-10-19T09:26:24;98726.31;;;11.13;79.56
3544;BME280;1786;52.870;9.578;2023-10-19T09:28:52;98728.91;;;11.51;78.84
3544;BME280;1786;52.870;9.578;2023-10-19T09:31:23;98724.28;;;11.35;79.32
3544;BME280;1786;52.870;9.578;2023-10-19T09:33:53;98729.91;;;11.22;80.24
3544;BME280;1786;52.870;9.578;2023-10-19T09:36:24;98732.00;;;11.46;79.74
3544;BME280;1786;52.870;9.578;2023-10-19T09:38:54;98731.56;;;11.68;79.04
3544;BME280;1786;52.870;9.578;2023-10-19T09:41:21;98737.50;;;11.35;80.04
3544;BME280;1786;52.870;9.578;2023-10-19T09:43:50;98743.28;;;11.84;78.69
3544;BME280;1786;52.870;9.578;2023-10-19T09:46:21;98745.47;;;11.70;79.01
3544;BME280;1786;52.870;9.578;2023-10-19T09:48:50;98738.91;;;11.75;78.48
3544;BME280;1786;52.870;9.578;2023-10-19T09:51:19;98737.28;;;11.46;80.06
3544;BME280;1786;52.870;9.578;2023-10-19T09:54:14;98735.28;;;11.76;78.75
3544;BME280;1786;52.870;9.578;2023-10-19T09:56:51;98741.72;;;12.27;77.16
3544;BME280;1786;52.870;9.578;2023-10-19T09:59:35;98749.53;;;12.54;76.71
3544;BME280;1786;52.870;9.578;2023-10-19T10:02:14;98739.22;;;12.25;77.21
3544;BME280;1786;52.870;9.578;2023-10-19T10:04:44;98736.59;;;12.07;77.92
3544;BME280;1786;52.870;9.578;2023-10-19T10:07:14;98727.56;;;11.64;78.77
3544;BME280;1786;52.870;9.578;2023-10-19T10:10:03;98734.66;;;11.64;79.74
3544;BME280;1786;52.870;9.578;2023-10-19T10:12:31;98734.44;;;11.75;78.64
3544;BME280;1786;52.870;9.578;2023-10-19T10:15:04;98733.91;;;12.43;76.96
3544;BME280;1786;52.870;9.578;2023-10-19T10:17:37;98735.31;;;12.11;77.82
3544;BME280;1786;52.870;9.578;2023-10-19T10:22:39;98729.09;;;12.21;77.82
3544;BME280;1786;52.870;9.578;2023-10-19T10:25:28;98716.81;;;12.64;76.44
3544;BME280;1786;52.870;9.578;2023-10-19T10:27:58;98717.88;;;12.27;77.96
3544;BME280;1786;52.870;9.578;2023-10-19T10:30:25;98719.25;;;12.31;77.73
3544;BME280;1786;52.870;9.578;2023-10-19T10:32:53;98719.06;;;12.50;76.94
3544;BME280;1786;52.870;9.578;2023-10-19T10:38:10;98715.69;;;11.68;79.50
3544;BME280;1786;52.870;9.578;2023-10-19T10:40:43;98721.28;;;12.19;78.47
3544;BME280;1786;52.870;9.578;2023-10-19T10:43:11;98712.53;;;12.19;78.04
3544;BME280;1786;52.870;9.578;2023-10-19T10:46:05;98717.97;;;11.99;78.13
3544;BME280;1786;52.870;9.578;2023-10-19T10:48:33;98707.25;;;12.71;76.83
3544;BME280;1786;52.870;9.578;2023-10-19T10:50:59;98712.22;;;12.74;76.64
3544;BME280;1786;52.870;9.578;2023-10-19T10:53:26;98707.06;;;12.38;76.50
3544;BME280;1786;52.870;9.578;2023-10-19T10:56:00;98709.13;;;12.52;76.89
3544;BME280;1786;52.870;9.578;2023-10-19T10:58:26;98714.31;;;12.36;77.42
3544;BME280;1786;52.870;9.578;2023-10-19T11:00:53;98707.84;;;12.12;78.44
3544;BME280;1786;52.870;9.578;2023-10-19T11:03:21;98705.88;;;12.67;76.94
3544;BME280;1786;52.870;9.578;2023-10-19T11:05:50;98700.44;;;12.42;76.91
3544;BME280;1786;52.870;9.578;2023-10-19T11:08:18;98694.69;;;11.85;78.88
3544;BME280;1786;52.870;9.578;2023-10-19T11:10:48;98702.25;;;11.80;79.11
3544;BME280;1786;52.870;9.578;2023-10-19T11:13:16;98693.88;;;12.02;79.22
3544;BME280;1786;52.870;9.578;2023-10-19T11:15:52;98695.25;;;11.88;79.52
3544;BME280;1786;52.870;9.578;2023-10-19T11:20:55;98696.41;;;11.76;80.06
3544;BME280;1786;52.870;9.578;2023-10-19T11:23:48;98694.25;;;12.33;77.28
3544;BME280;1786;52.870;9.578;2023-10-19T11:26:18;98688.41;;;12.04;77.82
3544;BME280;1786;52.870;9.578;2023-10-19T11:28:45;98691.19;;;12.20;78.19
3544;BME280;1786;52.870;9.578;2023-10-19T11:31:21;98690.78;;;12.33;77.50
3544;BME280;1786;52.870;9.578;2023-10-19T11:33:51;98683.16;;;12.30;78.13
3544;BME280;1786;52.870;9.578;2023-10-19T11:36:20;98679.41;;;12.41;77.37
3544;BME280;1786;52.870;9.578;2023-10-19T11:38:49;98679.59;;;12.73;75.88
3544;BME280;1786;52.870;9.578;2023-10-19T11:41:18;98677.69;;;12.05;77.76
3544;BME280;1786;52.870;9.578;2023-10-19T11:43:47;98686.78;;;12.29;77.28
3544;BME280;1786;52.870;9.578;2023-10-19T11:46:15;98685.13;;;12.28;76.66
3544;BME280;1786;52.870;9.578;2023-10-19T11:48:45;98690.91;;;12.05;78.35
3544;BME280;1786;52.870;9.578;2023-10-19T11:51:12;98689.50;;;11.93;78.57
3544;BME280;1786;52.870;9.578;2023-10-19T11:53:41;98679.69;;;12.11;77.87
3544;BME280;1786;52.870;9.578;2023-10-19T11:56:10;98681.13;;;12.24;77.58
3544;BME280;1786;52.870;9.578;2023-10-19T11:58:40;98673.94;;;12.68;76.64
3544;BME280;1786;52.870;9.578;2023-10-19T12:01:10;98681.25;;;12.40;76.75
3544;BME280;1786;52.870;9.578;2023-10-19T12:03:39;98678.34;;;12.60;76.16
3544;BME280;1786;52.870;9.578;2023-10-19T12:06:08;98673.78;;;12.70;75.57
3544;BME280;1786;52.870;9.578;2023-10-19T12:08:35;98678.22;;;12.95;75.14
3544;BME280;1786;52.870;9.578;2023-10-19T12:11:06;98668.66;;;13.11;75.30
3544;BME280;1786;52.870;9.578;2023-10-19T12:13:43;98672.84;;;12.79;75.51
3544;BME280;1786;52.870;9.578;2023-10-19T12:16:11;98667.94;;;12.32;77.53
3544;BME280;1786;52.870;9.578;2023-10-19T12:18:42;98662.75;;;12.83;75.74
3544;BME280;1786;52.870;9.578;2023-10-19T12:21:09;98672.97;;;12.43;77.05
3544;BME280;1786;52.870;9.578;2023-10-19T12:23:43;98687.50;;;12.39;76.65
3544;BME280;1786;52.870;9.578;2023-10-19T12:26:11;98689.56;;;12.01;77.93
3544;BME280;1786;52.870;9.578;2023-10-19T12:28:39;98685.28;;;12.26;77.83
3544;BME280;1786;52.870;9.578;2023-10-19T12:31:06;98683.16;;;12.30;76.44
3544;BME280;1786;52.870;9.578;2023-10-19T12:33:38;98677.19;;;12.54;76.85
3544;BME280;1786;52.870;9.578;2023-10-19T12:36:05;98682.91;;;12.41;76.87
3544;BME280;1786;52.870;9.578;2023-10-19T12:38:58;98676.06;;;12.65;76.31
3544;BME280;1786;52.870;9.578;2023-10-19T12:41:25;98669.44;;;12.08;77.35
3544;BME280;1786;52.870;9.578;2023-10-19T12:43:52;98668.72;;;12.50;76.70
3544;BME280;1786;52.870;9.578;2023-10-19T12:46:23;98668.41;;;12.53;76.24
3544;BME280;1786;52.870;9.578;2023-10-19T12:48:51;98671.44;;;12.67;75.16
3544;BME280;1786;52.870;9.578;2023-10-19T12:51:18;98679.41;;;12.41;77.13
3544;BME280;1786;52.870;9.578;2023-10-19T12:53:53;98676.38;;;12.62;76.06
3544;BME280;1786;52.870;9.578;2023-10-19T12:56:22;98671.34;;;13.19;74.77
3544;BME280;1786;52.870;9.578;2023-10-19T12:58:56;98681.38;;;13.41;73.35
3544;BME280;1786;52.870;9.578;2023-10-19T13:01:23;98684.22;;;13.06;74.79
3544;BME280;1786;52.870;9.578;2023-10-19T13:03:50;98681.22;;;13.01;74.77
3544;BME280;1786;52.870;9.578;2023-10-19T13:06:17;98684.41;;;13.12;74.47
3544;BME280;1786;52.870;9.578;2023-10-19T13:08:46;98687.69;;;12.38;75.93
3544;BME280;1786;52.870;9.578;2023-10-19T13:11:13;98691.88;;;12.48;75.86
3544;BME280;1786;52.870;9.578;2023-10-19T13:13:45;98679.59;;;11.95;77.79
3544;BME280;1786;52.870;9.578;2023-10-19T13:16:12;98680.88;;;12.35;76.51
3544;BME280;1786;52.870;9.578;2023-10-19T13:18:40;98679.34;;;11.88;77.75
3544;BME280;1786;52.870;9.578;2023-10-19T13:21:07;98670.06;;;12.54;75.93
3544;BME280;1786;52.870;9.578;2023-10-19T13:23:38;98676.50;;;12.52;75.75
3544;BME280;1786;52.870;9.578;2023-10-19T13:26:06;98668.19;;;12.73;75.05
3544;BME280;1786;52.870;9.578;2023-10-19T13:28:41;98670.78;;;12.39;76.56
3544;BME280;1786;52.870;9.578;2023-10-19T13:31:09;98662.06;;;12.46;76.47
3544;BME280;1786;52.870;9.578;2023-10-19T13:33:36;98666.09;;;13.27;73.99
3544;BME280;1786;52.870;9.578;2023-10-19T13:36:03;98665.06;;;12.77;74.72
3544;BME280;1786;52.870;9.578;2023-10-19T13:38:32;98668.28;;;12.63;74.60
3544;BME280;1786;52.870;9.578;2023-10-19T13:41:03;98658.63;;;12.54;75.19
3544;BME280;1786;52.870;9.578;2023-10-19T13:43:34;98659.56;;;12.71;75.03
3544;BME280;1786;52.870;9.578;2023-10-19T13:46:23;98667.84;;;12.76;74.74
3544;BME280;1786;52.870;9.578;2023-10-19T13:48:50;98667.84;;;12.76;74.87
3544;BME280;1786;52.870;9.578;2023-10-19T13:51:17;98665.91;;;12.52;75.54